Terminal Aerodrome Forecast
Issued by NWS

Home | Current Version | Previous Version | Text Only | Print | Product List | Glossary On
Versions: 1 2 3 4 5 6 7 8 9 10 11 12 13 14 15 16 17 18 19 20
000
FTUS44 KOHX 242300
TAFCKV
TAF
KCKV 242331Z 2500/2524 17005KT P6SM -SHRA BKN070 OVC100
     FM250300 17005KT 5SM -SHRA VCTS BKN025CB OVC050
     FM250700 17010KT 3SM TSRA BR BKN010CB OVC020
     FM251300 18010G20KT P6SM VCSH SCT015 BKN150
     FM251600 21014G26KT P6SM SCT020=

USA.gov is the U.S. government's official web portal to all federal, state and local government web resources and services.